Terminal Aerodrome Forecast
Issued by NWS Omaha/Valley, NE

Home | Current Version | Previous Version | Text Only | Print | Product List | Glossary On
Versions: 1 2 3 4 5 6 7 8 9 10 11 12 13 14 15 16 17 18 19 20 21 22 23 24 25 26 27 28 29 30 31 32 33 34 35 36 37 38 39 40
000
FTUS43 KOAX 052320
TAFOMA
TAF
KOMA 052320Z 0600/0624 19007KT P6SM SCT012 OVC080
      TEMPO 0600/0602 4SM BR OVC012
     FM060200 29007KT P6SM OVC080
     FM060600 32005KT 5SM BR OVC015
      TEMPO 0610/0614 1SM BR BKN009
     FM061600 17007KT P6SM BKN250=

USA.gov is the U.S. government's official web portal to all federal, state and local government web resources and services.